createdAt,value
2022-09-07T00:03:29.796Z,87.59
2022-09-07T00:08:32.071Z,87.78
2022-09-07T00:13:36.454Z,87.86
2022-09-07T00:18:41.367Z,87.87
2022-09-07T00:23:49.728Z,88.12
2022-09-07T00:28:53.140Z,88.19
2022-09-07T00:33:58.805Z,88.24
2022-09-07T00:39:00.681Z,88.40
2022-09-07T00:44:56.886Z,88.56
2022-09-07T00:50:08.127Z,88.72
2022-09-07T00:55:14.307Z,88.15
2022-09-07T01:00:16.904Z,87.84
2022-09-07T01:05:31.473Z,87.87
2022-09-07T01:10:35.603Z,87.97
2022-09-07T01:15:55.527Z,87.94
2022-09-07T01:21:21.646Z,88.08
2022-09-07T01:26:53.118Z,88.30
2022-09-07T01:31:57.965Z,88.32
2022-09-07T01:37:33.531Z,88.35
2022-09-07T01:43:01.419Z,88.61
2022-09-07T01:48:10.724Z,88.88
2022-09-07T01:53:42.035Z,88.49
2022-09-07T01:58:56.199Z,88.46
2022-09-07T02:04:11.287Z,88.44
2022-09-07T02:09:29.652Z,88.47
2022-09-07T02:14:40.639Z,88.99
2022-09-07T02:19:48.385Z,88.95
2022-09-07T02:24:55.045Z,88.54
2022-09-07T02:29:57.433Z,88.60
2022-09-07T02:34:59.309Z,88.55
2022-09-07T02:40:01.557Z,88.67
2022-09-07T02:45:07.546Z,88.76
2022-09-07T02:50:34.124Z,88.53
2022-09-07T02:55:51.368Z,88.56
2022-09-07T03:01:18.154Z,88.65
2022-09-07T03:06:32.592Z,88.66
2022-09-07T03:11:37.340Z,88.28
2022-09-07T03:16:39.931Z,88.16
2022-09-07T03:21:42.218Z,89.02
2022-09-07T03:26:46.556Z,89.27
2022-09-07T03:31:49.553Z,89.63
2022-09-07T03:36:51.840Z,89.43
2022-09-07T03:41:53.824Z,89.23
2022-09-07T03:46:55.697Z,89.53
2022-09-07T03:51:57.880Z,90.23
2022-09-07T03:56:59.960Z,90.42
2022-09-07T04:02:02.184Z,90.42
2022-09-07T04:07:04.739Z,90.56
2022-09-07T04:12:07.027Z,90.55
2022-09-07T04:17:09.537Z,90.55
2022-09-07T04:22:11.708Z,90.71
2022-09-07T04:27:13.577Z,90.89
2022-09-07T04:32:16.052Z,90.77
2022-09-07T04:37:18.354Z,90.64
2022-09-07T04:42:20.744Z,90.41
2022-09-07T04:47:23.130Z,88.13
2022-09-07T04:52:25.218Z,83.65
2022-09-07T04:57:27.195Z,74.37
2022-09-07T05:02:29.129Z,71.50
2022-09-07T05:07:31.153Z,72.41
2022-09-07T05:12:33.440Z,69.86
2022-09-07T05:17:35.366Z,64.34
2022-09-07T05:22:40.673Z,57.66
2022-09-07T05:27:42.961Z,53.82
2022-09-07T05:32:45.860Z,49.57
2022-09-07T05:37:51.013Z,46.08
2022-09-07T05:42:52.892Z,44.53
2022-09-07T05:47:55.320Z,38.86
2022-09-07T05:52:58.797Z,37.00
2022-09-07T05:58:00.669Z,34.91
2022-09-07T06:03:02.297Z,34.57
2022-09-07T06:08:04.430Z,34.49
2022-09-07T06:13:06.402Z,32.38
2022-09-07T06:18:09.146Z,32.49
2022-09-07T06:23:11.077Z,32.90
2022-09-07T06:28:13.363Z,33.58
2022-09-07T06:33:16.913Z,32.74
2022-09-07T06:38:20.915Z,32.35
2022-09-07T06:43:22.887Z,30.86
2022-09-07T06:48:25.520Z,28.88
2022-09-07T06:53:33.979Z,27.09
2022-09-07T06:58:39.181Z,25.64
2022-09-07T07:03:44.757Z,23.96
2022-09-07T07:08:47.838Z,23.27
2022-09-07T07:13:49.609Z,22.70
2022-09-07T07:18:55.278Z,21.54
2022-09-07T07:23:57.368Z,20.96
2022-09-07T07:34:06.866Z,19.98
2022-09-07T07:44:31.078Z,19.46
2022-09-07T07:49:32.855Z,18.31
2022-09-07T07:54:36.493Z,17.75
2022-09-07T07:59:38.997Z,16.96
2022-09-07T08:04:41.145Z,16.39
2022-09-07T08:09:45.482Z,15.92
2022-09-07T08:14:48.073Z,16.14
2022-09-07T08:19:51.185Z,15.93
2022-09-07T08:24:52.859Z,15.87
2022-09-07T08:29:54.728Z,15.51
2022-09-07T08:34:58.652Z,16.16
2022-09-07T08:40:00.999Z,15.11
2022-09-07T08:45:19.713Z,15.54
2022-09-07T08:50:39.100Z,14.75
2022-09-07T08:55:50.500Z,14.57
2022-09-07T09:01:30.788Z,14.45
2022-09-07T09:06:58.659Z,15.61
2022-09-07T09:12:37.365Z,15.89
2022-09-07T09:17:47.917Z,15.01
2022-09-07T09:22:56.742Z,15.09
2022-09-07T09:28:00.764Z,14.77
2022-09-07T09:33:22.393Z,14.93
2022-09-07T09:38:36.044Z,15.46
2022-09-07T09:43:45.397Z,15.57
2022-09-07T09:48:57.466Z,16.17
2022-09-07T09:54:18.130Z,17.99
2022-09-07T10:04:44.820Z,21.27
2022-09-07T10:09:52.557Z,21.94
2022-09-07T10:14:56.153Z,22.84
2022-09-07T10:20:21.286Z,25.37
2022-09-07T10:25:29.050Z,26.36
2022-09-07T10:31:15.335Z,28.23
2022-09-07T10:36:36.536Z,30.17
2022-09-07T10:41:47.535Z,28.98
2022-09-07T10:46:57.134Z,30.59
2022-09-07T10:52:25.483Z,31.41
2022-09-07T10:57:51.421Z,30.70
2022-09-07T11:03:27.125Z,30.87
2022-09-07T11:09:17.395Z,31.85
2022-09-07T11:14:23.479Z,32.61
2022-09-07T11:19:35.647Z,31.97
2022-09-07T11:24:44.332Z,33.20
2022-09-07T11:29:54.728Z,33.59
2022-09-07T11:35:38.570Z,34.55
2022-09-07T11:40:57.342Z,33.52
2022-09-07T11:46:11.762Z,34.35
2022-09-07T11:51:26.186Z,33.41
2022-09-07T11:56:36.605Z,33.26
2022-09-07T12:01:58.101Z,33.74
2022-09-07T12:07:33.770Z,33.86
2022-09-07T12:12:56.126Z,34.24
2022-09-07T12:18:03.839Z,34.27
2022-09-07T12:23:20.770Z,34.43
2022-09-07T12:28:25.617Z,34.43
2022-09-07T12:33:36.812Z,34.87
2022-09-07T12:38:58.964Z,34.08
2022-09-07T12:44:14.134Z,33.92
2022-09-07T12:49:45.111Z,33.84
2022-09-07T12:55:16.406Z,33.64
2022-09-07T13:00:22.943Z,33.85
2022-09-07T13:05:33.851Z,34.12
2022-09-07T13:10:41.987Z,34.36
2022-09-07T13:15:50.571Z,33.95
2022-09-07T13:21:07.755Z,33.63
2022-09-07T13:26:13.717Z,33.20
2022-09-07T13:31:56.964Z,32.96
2022-09-07T13:37:04.166Z,33.35
2022-09-07T13:42:06.451Z,33.11
2022-09-07T13:47:40.096Z,33.93
2022-09-07T13:52:53.830Z,33.46
2022-09-07T13:58:10.658Z,33.54
2022-09-07T14:03:16.313Z,33.88
2022-09-07T14:08:29.784Z,34.46
2022-09-07T14:13:31.688Z,34.70
2022-09-07T14:18:33.931Z,35.22
2022-09-07T14:23:36.321Z,34.95
2022-09-07T14:28:39.231Z,34.66
2022-09-07T14:33:51.575Z,35.14
2022-09-07T14:39:09.772Z,35.10
2022-09-07T14:44:39.853Z,34.82
2022-09-07T14:49:43.477Z,35.46
2022-09-07T14:54:52.318Z,35.10
2022-09-07T14:59:57.404Z,35.48
2022-09-07T15:05:15.137Z,36.09
2022-09-07T15:10:23.241Z,37.05
2022-09-07T15:15:32.889Z,38.70
2022-09-07T15:20:43.890Z,39.82
2022-09-07T15:25:53.535Z,40.11
2022-09-07T15:36:20.459Z,41.38
2022-09-07T15:41:24.645Z,42.16
2022-09-07T15:46:29.558Z,42.46
2022-09-07T16:13:11.023Z,42.56
2022-09-07T16:18:16.830Z,43.05
2022-09-07T16:23:19.105Z,44.09
2022-09-07T16:28:21.085Z,43.65
2022-09-07T16:33:29.213Z,44.78
2022-09-07T16:38:47.337Z,45.20
2022-09-07T16:43:49.658Z,46.17
2022-09-07T16:48:52.663Z,47.23
2022-09-07T16:53:58.607Z,48.10
2022-09-07T16:59:04.710Z,48.28
2022-09-07T17:04:11.052Z,48.44
2022-09-07T17:09:14.301Z,48.29
2022-09-07T17:14:17.096Z,49.38
2022-09-07T17:19:29.186Z,49.27
2022-09-07T17:24:32.841Z,50.79
2022-09-07T17:29:37.686Z,53.74
2022-09-07T17:34:40.398Z,56.10
2022-09-07T17:39:43.019Z,57.53
2022-09-07T17:44:46.486Z,58.82
2022-09-07T17:49:49.022Z,59.87
2022-09-07T17:54:55.355Z,60.01
2022-09-07T18:00:15.630Z,61.20
2022-09-07T18:05:18.852Z,61.62
2022-09-07T18:10:24.854Z,61.28
2022-09-07T18:15:30.445Z,62.15
2022-09-07T18:20:35.787Z,61.25
2022-09-07T18:25:38.973Z,62.20
2022-09-07T18:30:42.492Z,67.92
2022-09-07T18:35:49.719Z,69.68
2022-09-07T18:41:09.298Z,69.28
2022-09-07T18:46:14.760Z,69.74
2022-09-07T18:51:18.582Z,70.93
2022-09-07T18:56:21.877Z,72.46
2022-09-07T19:01:24.949Z,71.76
2022-09-07T19:06:27.485Z,70.82
2022-09-07T19:11:31.120Z,70.47
2022-09-07T19:16:35.103Z,76.45
2022-09-07T19:21:39.944Z,80.51
2022-09-07T19:26:47.780Z,79.79
2022-09-07T19:32:05.750Z,79.88
2022-09-07T19:37:10.171Z,79.53
2022-09-07T19:42:14.706Z,77.29
2022-09-07T19:47:17.650Z,76.11
2022-09-07T19:52:20.318Z,75.05
2022-09-07T19:57:23.443Z,74.88
2022-09-07T20:02:26.127Z,75.11
2022-09-07T20:07:28.514Z,74.28
2022-09-07T20:12:30.579Z,74.08
2022-09-07T20:17:35.329Z,74.81
2022-09-07T20:22:38.732Z,74.49
2022-09-07T20:27:41.825Z,74.54
2022-09-07T20:32:44.205Z,74.57
2022-09-07T20:37:48.263Z,73.96
2022-09-07T20:42:50.753Z,74.17
2022-09-07T20:47:54.365Z,73.96
2022-09-07T20:52:56.041Z,74.03
2022-09-07T20:57:59.961Z,73.89
2022-09-07T21:03:01.851Z,74.10
2022-09-07T21:08:03.716Z,73.91
2022-09-07T21:13:05.799Z,73.16
2022-09-07T21:18:11.669Z,74.24
2022-09-07T21:23:13.543Z,74.27
2022-09-07T21:28:15.522Z,74.56
2022-09-07T21:33:17.196Z,75.08
2022-09-07T21:38:20.709Z,75.04
2022-09-07T21:43:22.484Z,75.32
2022-09-07T21:48:24.258Z,75.75
2022-09-07T21:53:26.443Z,76.31
2022-09-07T21:58:29.448Z,76.68
2022-09-07T22:03:31.146Z,76.67
2022-09-07T22:08:37.602Z,76.73
2022-09-07T22:13:39.785Z,76.45
2022-09-07T22:18:45.655Z,76.35
2022-09-07T22:23:51.329Z,76.17
2022-09-07T22:28:54.325Z,77.01
2022-09-07T22:33:57.234Z,77.77
2022-09-07T22:39:01.968Z,77.88
2022-09-07T22:44:05.179Z,77.96
2022-09-07T22:49:07.465Z,78.40
2022-09-07T22:54:09.446Z,79.70
2022-09-07T22:59:12.038Z,79.55
2022-09-07T23:04:13.882Z,79.43
2022-09-07T23:09:17.640Z,80.04
2022-09-07T23:14:21.663Z,80.80
2022-09-07T23:19:23.536Z,81.42
2022-09-07T23:24:25.618Z,82.31
2022-09-07T23:29:27.291Z,83.06
2022-09-07T23:34:28.962Z,83.49
2022-09-07T23:39:30.676Z,84.59
2022-09-07T23:44:32.408Z,84.17
2022-09-07T23:49:34.182Z,83.39
2022-09-07T23:54:35.960Z,83.37
2022-09-07T23:59:37.630Z,82.73
